sensor_id;sensor_type;location;lat;lon;timestamp;temperature;humidity
27439;DHT22;14887;51.252;7.470;2023-03-26T00:01:07;5.00;99.90
27439;DHT22;14887;51.252;7.470;2023-03-26T00:03:34;5.00;99.90
27439;DHT22;14887;51.252;7.470;2023-03-26T00:06:10;5.10;99.90
27439;DHT22;14887;51.252;7.470;2023-03-26T00:08:38;5.10;99.90
27439;DHT22;14887;51.252;7.470;2023-03-26T00:11:06;5.20;99.90
27439;DHT22;14887;51.252;7.470;2023-03-26T00:13:33;5.20;99.90
27439;DHT22;14887;51.252;7.470;2023-03-26T00:15:59;5.20;99.90
27439;DHT22;14887;51.252;7.470;2023-03-26T00:18:26;5.30;99.90
27439;DHT22;14887;51.252;7.470;2023-03-26T00:21:01;5.30;99.90
27439;DHT22;14887;51.252;7.470;2023-03-26T00:23:28;5.30;99.90
27439;DHT22;14887;51.252;7.470;2023-03-26T00:25:54;5.40;99.90
27439;DHT22;14887;51.252;7.470;2023-03-26T00:28:22;5.40;99.90
27439;DHT22;14887;51.252;7.470;2023-03-26T00:30:49;5.40;99.90
27439;DHT22;14887;51.252;7.470;2023-03-26T00:33:15;5.40;99.90
27439;DHT22;14887;51.252;7.470;2023-03-26T00:35:42;5.40;99.90
27439;DHT22;14887;51.252;7.470;2023-03-26T00:38:15;5.40;99.90
27439;DHT22;14887;51.252;7.470;2023-03-26T00:40:42;5.40;99.90
27439;DHT22;14887;51.252;7.470;2023-03-26T00:43:09;5.40;99.90
27439;DHT22;14887;51.252;7.470;2023-03-26T00:45:52;5.50;99.90
27439;DHT22;14887;51.252;7.470;2023-03-26T00:48:19;5.40;99.90
27439;DHT22;14887;51.252;7.470;2023-03-26T00:50:47;5.50;99.90
27439;DHT22;14887;51.252;7.470;2023-03-26T00:53:16;5.50;99.90
27439;DHT22;14887;51.252;7.470;2023-03-26T00:55:43;5.40;99.90
27439;DHT22;14887;51.252;7.470;2023-03-26T00:58:10;5.50;99.90
27439;DHT22;14887;51.252;7.470;2023-03-26T01:00:42;5.50;99.90
27439;DHT22;14887;51.252;7.470;2023-03-26T01:03:12;5.40;99.90
27439;DHT22;14887;51.252;7.470;2023-03-26T01:05:45;5.50;99.90
27439;DHT22;14887;51.252;7.470;2023-03-26T01:08:27;5.40;99.90
27439;DHT22;14887;51.252;7.470;2023-03-26T01:10:56;5.40;99.90
27439;DHT22;14887;51.252;7.470;2023-03-26T01:13:30;5.40;99.90
27439;DHT22;14887;51.252;7.470;2023-03-26T01:15:57;5.40;99.90
27439;DHT22;14887;51.252;7.470;2023-03-26T01:18:28;5.40;99.90
27439;DHT22;14887;51.252;7.470;2023-03-26T01:20:59;5.40;99.90
27439;DHT22;14887;51.252;7.470;2023-03-26T01:23:39;5.40;99.90
27439;DHT22;14887;51.252;7.470;2023-03-26T01:26:29;5.40;99.90
27439;DHT22;14887;51.252;7.470;2023-03-26T01:28:58;5.40;99.90
27439;DHT22;14887;51.252;7.470;2023-03-26T01:31:56;5.40;99.90
27439;DHT22;14887;51.252;7.470;2023-03-26T01:37:24;5.40;99.90
27439;DHT22;14887;51.252;7.470;2023-03-26T01:39:56;5.40;99.90
27439;DHT22;14887;51.252;7.470;2023-03-26T01:42:40;5.40;99.90
27439;DHT22;14887;51.252;7.470;2023-03-26T01:45:15;5.40;99.90
27439;DHT22;14887;51.252;7.470;2023-03-26T01:47:44;5.50;99.90
27439;DHT22;14887;51.252;7.470;2023-03-26T01:50:10;5.50;99.90
27439;DHT22;14887;51.252;7.470;2023-03-26T01:52:36;5.50;99.90
27439;DHT22;14887;51.252;7.470;2023-03-26T01:55:02;5.50;99.90
27439;DHT22;14887;51.252;7.470;2023-03-26T01:57:36;5.50;99.90
27439;DHT22;14887;51.252;7.470;2023-03-26T02:03:01;5.50;99.90
27439;DHT22;14887;51.252;7.470;2023-03-26T02:05:41;5.50;99.90
27439;DHT22;14887;51.252;7.470;2023-03-26T02:08:19;5.50;99.90
27439;DHT22;14887;51.252;7.470;2023-03-26T02:10:54;5.50;99.90
27439;DHT22;14887;51.252;7.470;2023-03-26T02:13:21;5.50;99.90
27439;DHT22;14887;51.252;7.470;2023-03-26T02:16:02;5.50;99.90
27439;DHT22;14887;51.252;7.470;2023-03-26T02:18:28;5.60;99.90
27439;DHT22;14887;51.252;7.470;2023-03-26T02:21:19;5.60;99.90
27439;DHT22;14887;51.252;7.470;2023-03-26T02:23:47;5.60;99.90
27439;DHT22;14887;51.252;7.470;2023-03-26T02:26:15;5.60;99.90
27439;DHT22;14887;51.252;7.470;2023-03-26T02:28:41;5.70;99.90
27439;DHT22;14887;51.252;7.470;2023-03-26T02:31:06;5.70;99.90
27439;DHT22;14887;51.252;7.470;2023-03-26T02:33:35;5.60;99.90
27439;DHT22;14887;51.252;7.470;2023-03-26T02:36:02;5.60;99.90
27439;DHT22;14887;51.252;7.470;2023-03-26T02:38:29;5.60;99.90
27439;DHT22;14887;51.252;7.470;2023-03-26T02:40:58;5.70;99.90
27439;DHT22;14887;51.252;7.470;2023-03-26T02:43:23;5.60;99.90
27439;DHT22;14887;51.252;7.470;2023-03-26T02:45:49;5.60;99.90
27439;DHT22;14887;51.252;7.470;2023-03-26T02:48:15;5.60;99.90
27439;DHT22;14887;51.252;7.470;2023-03-26T02:50:40;5.60;99.90
27439;DHT22;14887;51.252;7.470;2023-03-26T02:53:06;5.60;99.90
27439;DHT22;14887;51.252;7.470;2023-03-26T02:55:32;5.60;99.90
27439;DHT22;14887;51.252;7.470;2023-03-26T02:57:58;5.60;99.90
27439;DHT22;14887;51.252;7.470;2023-03-26T03:00:23;5.70;99.90
27439;DHT22;14887;51.252;7.470;2023-03-26T03:02:50;5.60;99.90
27439;DHT22;14887;51.252;7.470;2023-03-26T03:05:17;5.60;99.90
27439;DHT22;14887;51.252;7.470;2023-03-26T03:07:44;5.60;99.90
27439;DHT22;14887;51.252;7.470;2023-03-26T03:10:11;5.70;99.90
27439;DHT22;14887;51.252;7.470;2023-03-26T03:12:41;5.70;99.90
27439;DHT22;14887;51.252;7.470;2023-03-26T03:15:07;5.60;99.90
27439;DHT22;14887;51.252;7.470;2023-03-26T03:17:33;5.60;99.90
27439;DHT22;14887;51.252;7.470;2023-03-26T03:19:58;5.60;99.90
27439;DHT22;14887;51.252;7.470;2023-03-26T03:22:24;5.50;99.90
27439;DHT22;14887;51.252;7.470;2023-03-26T03:24:50;5.50;99.90
27439;DHT22;14887;51.252;7.470;2023-03-26T03:27:22;5.50;99.90
27439;DHT22;14887;51.252;7.470;2023-03-26T03:29:50;5.50;99.90
27439;DHT22;14887;51.252;7.470;2023-03-26T03:32:18;5.50;99.90
27439;DHT22;14887;51.252;7.470;2023-03-26T03:34:44;5.50;99.90
27439;DHT22;14887;51.252;7.470;2023-03-26T03:37:10;5.50;99.90
27439;DHT22;14887;51.252;7.470;2023-03-26T03:39:35;5.50;99.90
27439;DHT22;14887;51.252;7.470;2023-03-26T03:42:01;5.50;99.90
27439;DHT22;14887;51.252;7.470;2023-03-26T03:44:27;5.50;99.90
27439;DHT22;14887;51.252;7.470;2023-03-26T03:46:52;5.60;99.90
27439;DHT22;14887;51.252;7.470;2023-03-26T03:49:20;5.50;99.90
27439;DHT22;14887;51.252;7.470;2023-03-26T03:51:46;5.50;99.90
27439;DHT22;14887;51.252;7.470;2023-03-26T03:54:11;5.60;99.90
27439;DHT22;14887;51.252;7.470;2023-03-26T03:56:37;5.60;99.90
27439;DHT22;14887;51.252;7.470;2023-03-26T03:59:03;5.50;99.90
27439;DHT22;14887;51.252;7.470;2023-03-26T04:01:29;5.50;99.90
27439;DHT22;14887;51.252;7.470;2023-03-26T04:03:55;5.50;99.90
27439;DHT22;14887;51.252;7.470;2023-03-26T04:06:21;5.50;99.90
27439;DHT22;14887;51.252;7.470;2023-03-26T04:08:50;5.50;99.90
27439;DHT22;14887;51.252;7.470;2023-03-26T04:11:15;5.50;99.90
27439;DHT22;14887;51.252;7.470;2023-03-26T04:13:41;5.50;99.90
27439;DHT22;14887;51.252;7.470;2023-03-26T04:16:07;5.50;99.90
27439;DHT22;14887;51.252;7.470;2023-03-26T04:18:33;5.50;99.90
27439;DHT22;14887;51.252;7.470;2023-03-26T04:20:58;5.50;99.90
27439;DHT22;14887;51.252;7.470;2023-03-26T04:23:28;5.50;99.90
27439;DHT22;14887;51.252;7.470;2023-03-26T04:25:53;5.40;99.90
27439;DHT22;14887;51.252;7.470;2023-03-26T04:28:44;5.50;99.90
27439;DHT22;14887;51.252;7.470;2023-03-26T04:31:15;5.50;99.90
27439;DHT22;14887;51.252;7.470;2023-03-26T04:33:44;5.50;99.90
27439;DHT22;14887;51.252;7.470;2023-03-26T04:36:15;5.40;99.90
27439;DHT22;14887;51.252;7.470;2023-03-26T04:38:43;5.40;99.90
27439;DHT22;14887;51.252;7.470;2023-03-26T04:41:13;5.40;99.90
27439;DHT22;14887;51.252;7.470;2023-03-26T04:43:39;5.30;99.90
27439;DHT22;14887;51.252;7.470;2023-03-26T04:46:07;5.30;99.90
27439;DHT22;14887;51.252;7.470;2023-03-26T04:48:35;5.10;99.90
27439;DHT22;14887;51.252;7.470;2023-03-26T04:51:01;5.20;99.90
27439;DHT22;14887;51.252;7.470;2023-03-26T04:53:26;5.20;99.90
27439;DHT22;14887;51.252;7.470;2023-03-26T04:55:59;5.10;99.90
27439;DHT22;14887;51.252;7.470;2023-03-26T04:58:26;5.20;99.90
27439;DHT22;14887;51.252;7.470;2023-03-26T05:01:00;5.10;99.90
27439;DHT22;14887;51.252;7.470;2023-03-26T05:03:29;5.10;99.90
27439;DHT22;14887;51.252;7.470;2023-03-26T05:05:59;5.10;99.90
27439;DHT22;14887;51.252;7.470;2023-03-26T05:08:25;5.10;99.90
27439;DHT22;14887;51.252;7.470;2023-03-26T05:10:56;5.10;99.90
27439;DHT22;14887;51.252;7.470;2023-03-26T05:13:22;5.10;99.90
27439;DHT22;14887;51.252;7.470;2023-03-26T05:15:48;5.10;99.90
27439;DHT22;14887;51.252;7.470;2023-03-26T05:18:14;5.10;99.90
27439;DHT22;14887;51.252;7.470;2023-03-26T05:20:40;5.10;99.90
27439;DHT22;14887;51.252;7.470;2023-03-26T05:23:06;5.20;99.90
27439;DHT22;14887;51.252;7.470;2023-03-26T05:25:32;5.10;99.90
27439;DHT22;14887;51.252;7.470;2023-03-26T05:27:59;5.10;99.90
27439;DHT22;14887;51.252;7.470;2023-03-26T05:30:25;5.10;99.90
27439;DHT22;14887;51.252;7.470;2023-03-26T05:32:51;5.20;99.90
27439;DHT22;14887;51.252;7.470;2023-03-26T05:35:17;5.20;99.90
27439;DHT22;14887;51.252;7.470;2023-03-26T05:37:45;5.10;99.90
27439;DHT22;14887;51.252;7.470;2023-03-26T05:40:12;5.10;99.90
27439;DHT22;14887;51.252;7.470;2023-03-26T05:42:40;5.20;99.90
27439;DHT22;14887;51.252;7.470;2023-03-26T05:45:07;5.20;99.90
27439;DHT22;14887;51.252;7.470;2023-03-26T05:47:33;5.20;99.90
27439;DHT22;14887;51.252;7.470;2023-03-26T05:49:59;5.20;99.90
27439;DHT22;14887;51.252;7.470;2023-03-26T05:52:25;5.30;99.90
27439;DHT22;14887;51.252;7.470;2023-03-26T05:54:50;5.30;99.90
27439;DHT22;14887;51.252;7.470;2023-03-26T05:57:16;5.30;99.90
27439;DHT22;14887;51.252;7.470;2023-03-26T05:59:43;5.30;99.90
27439;DHT22;14887;51.252;7.470;2023-03-26T06:02:09;5.30;99.90
27439;DHT22;14887;51.252;7.470;2023-03-26T06:04:36;5.30;99.90
27439;DHT22;14887;51.252;7.470;2023-03-26T06:07:08;5.30;99.90
27439;DHT22;14887;51.252;7.470;2023-03-26T06:09:38;5.30;99.90
27439;DHT22;14887;51.252;7.470;2023-03-26T06:12:09;5.20;99.90
27439;DHT22;14887;51.252;7.470;2023-03-26T06:14:35;5.20;99.90
27439;DHT22;14887;51.252;7.470;2023-03-26T06:17:00;5.20;99.90
27439;DHT22;14887;51.252;7.470;2023-03-26T06:19:26;5.30;99.90
27439;DHT22;14887;51.252;7.470;2023-03-26T06:21:52;5.30;99.90
27439;DHT22;14887;51.252;7.470;2023-03-26T06:24:17;5.30;99.90
27439;DHT22;14887;51.252;7.470;2023-03-26T06:26:44;5.30;99.90
27439;DHT22;14887;51.252;7.470;2023-03-26T06:29:11;5.20;99.90
27439;DHT22;14887;51.252;7.470;2023-03-26T06:31:36;5.30;99.90
27439;DHT22;14887;51.252;7.470;2023-03-26T06:34:02;5.30;99.90
27439;DHT22;14887;51.252;7.470;2023-03-26T06:36:27;5.30;99.90
27439;DHT22;14887;51.252;7.470;2023-03-26T06:38:53;5.30;99.90
27439;DHT22;14887;51.252;7.470;2023-03-26T06:41:19;5.30;99.90
27439;DHT22;14887;51.252;7.470;2023-03-26T06:43:44;5.30;99.90
27439;DHT22;14887;51.252;7.470;2023-03-26T06:46:10;5.30;99.90
27439;DHT22;14887;51.252;7.470;2023-03-26T06:48:37;5.30;99.90
27439;DHT22;14887;51.252;7.470;2023-03-26T06:51:03;5.30;99.90
27439;DHT22;14887;51.252;7.470;2023-03-26T06:53:28;5.30;99.90
27439;DHT22;14887;51.252;7.470;2023-03-26T06:55:54;5.30;99.90
27439;DHT22;14887;51.252;7.470;2023-03-26T06:58:19;5.40;99.90
27439;DHT22;14887;51.252;7.470;2023-03-26T07:00:45;5.40;99.90
27439;DHT22;14887;51.252;7.470;2023-03-26T07:03:11;5.40;99.90
27439;DHT22;14887;51.252;7.470;2023-03-26T07:05:39;5.40;99.90
27439;DHT22;14887;51.252;7.470;2023-03-26T07:08:05;5.40;99.90
27439;DHT22;14887;51.252;7.470;2023-03-26T07:10:30;5.40;99.90
27439;DHT22;14887;51.252;7.470;2023-03-26T07:12:56;5.50;99.90
27439;DHT22;14887;51.252;7.470;2023-03-26T07:15:21;5.50;99.90
27439;DHT22;14887;51.252;7.470;2023-03-26T07:17:47;5.50;99.90
27439;DHT22;14887;51.252;7.470;2023-03-26T07:20:12;5.50;99.90
27439;DHT22;14887;51.252;7.470;2023-03-26T07:22:38;5.60;99.90
27439;DHT22;14887;51.252;7.470;2023-03-26T07:25:05;5.60;99.90
27439;DHT22;14887;51.252;7.470;2023-03-26T07:27:35;5.60;99.90
27439;DHT22;14887;51.252;7.470;2023-03-26T07:30:18;5.60;99.90
27439;DHT22;14887;51.252;7.470;2023-03-26T07:35:27;5.70;99.90
27439;DHT22;14887;51.252;7.470;2023-03-26T07:41:14;5.70;99.90
27439;DHT22;14887;51.252;7.470;2023-03-26T07:43:52;5.70;99.90
27439;DHT22;14887;51.252;7.470;2023-03-26T07:46:29;5.80;99.90
27439;DHT22;14887;51.252;7.470;2023-03-26T07:49:01;5.80;99.90
27439;DHT22;14887;51.252;7.470;2023-03-26T07:51:29;5.80;99.90
27439;DHT22;14887;51.252;7.470;2023-03-26T07:53:55;5.90;99.90
27439;DHT22;14887;51.252;7.470;2023-03-26T07:59:27;5.90;99.90
27439;DHT22;14887;51.252;7.470;2023-03-26T08:10:16;6.30;99.90
27439;DHT22;14887;51.252;7.470;2023-03-26T08:13:24;6.30;99.90
27439;DHT22;14887;51.252;7.470;2023-03-26T08:15:59;6.20;99.90
27439;DHT22;14887;51.252;7.470;2023-03-26T08:21:19;6.20;99.90
27439;DHT22;14887;51.252;7.470;2023-03-26T08:32:32;6.10;99.90
27439;DHT22;14887;51.252;7.470;2023-03-26T08:34:57;6.20;99.90
27439;DHT22;14887;51.252;7.470;2023-03-26T08:37:24;6.20;99.90
27439;DHT22;14887;51.252;7.470;2023-03-26T08:39:51;6.10;99.90
27439;DHT22;14887;51.252;7.470;2023-03-26T09:04:12;6.20;99.90
27439;DHT22;14887;51.252;7.470;2023-03-26T09:21:10;6.20;99.90
27439;DHT22;14887;51.252;7.470;2023-03-26T09:24:33;6.20;99.90
27439;DHT22;14887;51.252;7.470;2023-03-26T09:32:28;6.10;99.90
27439;DHT22;14887;51.252;7.470;2023-03-26T09:37:59;6.10;99.90
27439;DHT22;14887;51.252;7.470;2023-03-26T09:43:56;6.00;99.90
27439;DHT22;14887;51.252;7.470;2023-03-26T09:49:16;5.90;99.90
27439;DHT22;14887;51.252;7.470;2023-03-26T09:52:05;6.00;99.90
27439;DHT22;14887;51.252;7.470;2023-03-26T10:02:47;5.80;99.90
27439;DHT22;14887;51.252;7.470;2023-03-26T10:11:04;5.80;99.90
27439;DHT22;14887;51.252;7.470;2023-03-26T10:24:21;5.40;99.90
27439;DHT22;14887;51.252;7.470;2023-03-26T10:32:52;5.20;99.90
27439;DHT22;14887;51.252;7.470;2023-03-26T10:41:00;5.30;99.90
27439;DHT22;14887;51.252;7.470;2023-03-26T10:49:43;5.10;99.90
27439;DHT22;14887;51.252;7.470;2023-03-26T10:52:17;5.20;99.90
27439;DHT22;14887;51.252;7.470;2023-03-26T10:54:55;5.30;99.90
27439;DHT22;14887;51.252;7.470;2023-03-26T10:57:52;5.30;99.90
27439;DHT22;14887;51.252;7.470;2023-03-26T11:00:25;5.40;99.90
27439;DHT22;14887;51.252;7.470;2023-03-26T11:08:41;5.60;99.90
27439;DHT22;14887;51.252;7.470;2023-03-26T11:14:01;5.80;99.90
27439;DHT22;14887;51.252;7.470;2023-03-26T11:30:45;5.70;99.90
27439;DHT22;14887;51.252;7.470;2023-03-26T11:33:18;5.70;99.90
27439;DHT22;14887;51.252;7.470;2023-03-26T11:35:48;5.60;99.90
27439;DHT22;14887;51.252;7.470;2023-03-26T11:38:29;5.70;99.90
27439;DHT22;14887;51.252;7.470;2023-03-26T11:40:59;5.70;99.90
27439;DHT22;14887;51.252;7.470;2023-03-26T11:43:30;5.80;99.90
27439;DHT22;14887;51.252;7.470;2023-03-26T11:45:58;5.80;99.90
27439;DHT22;14887;51.252;7.470;2023-03-26T11:48:29;5.90;99.90
27439;DHT22;14887;51.252;7.470;2023-03-26T11:51:01;6.00;99.90
27439;DHT22;14887;51.252;7.470;2023-03-26T11:53:32;6.10;99.90
27439;DHT22;14887;51.252;7.470;2023-03-26T11:56:05;6.10;99.90
27439;DHT22;14887;51.252;7.470;2023-03-26T11:58:39;6.10;99.90
27439;DHT22;14887;51.252;7.470;2023-03-26T12:01:16;6.00;99.90
27439;DHT22;14887;51.252;7.470;2023-03-26T12:03:42;6.10;99.90
27439;DHT22;14887;51.252;7.470;2023-03-26T12:06:22;6.10;99.90
27439;DHT22;14887;51.252;7.470;2023-03-26T12:08:50;6.20;99.90
27439;DHT22;14887;51.252;7.470;2023-03-26T12:11:27;6.20;99.90
27439;DHT22;14887;51.252;7.470;2023-03-26T12:14:00;6.20;99.90
27439;DHT22;14887;51.252;7.470;2023-03-26T12:16:26;6.30;99.90
27439;DHT22;14887;51.252;7.470;2023-03-26T12:19:04;6.30;99.90
27439;DHT22;14887;51.252;7.470;2023-03-26T12:21:49;6.30;99.90
27439;DHT22;14887;51.252;7.470;2023-03-26T12:24:25;6.40;99.90
27439;DHT22;14887;51.252;7.470;2023-03-26T12:26:57;6.30;99.90
27439;DHT22;14887;51.252;7.470;2023-03-26T12:29:26;6.30;99.90
27439;DHT22;14887;51.252;7.470;2023-03-26T12:32:08;6.40;99.90
27439;DHT22;14887;51.252;7.470;2023-03-26T12:34:38;6.40;99.90
27439;DHT22;14887;51.252;7.470;2023-03-26T12:37:06;6.50;99.90
27439;DHT22;14887;51.252;7.470;2023-03-26T12:39:34;6.50;99.90
27439;DHT22;14887;51.252;7.470;2023-03-26T12:42:05;6.50;99.90
27439;DHT22;14887;51.252;7.470;2023-03-26T12:44:49;6.50;99.90
27439;DHT22;14887;51.252;7.470;2023-03-26T12:47:22;6.50;99.90
27439;DHT22;14887;51.252;7.470;2023-03-26T12:49:51;6.50;99.90
27439;DHT22;14887;51.252;7.470;2023-03-26T13:01:58;6.60;99.90
27439;DHT22;14887;51.252;7.470;2023-03-26T13:15:59;6.80;99.90
27439;DHT22;14887;51.252;7.470;2023-03-26T13:21:25;6.80;99.90
27439;DHT22;14887;51.252;7.470;2023-03-26T13:27:19;6.80;99.90
27439;DHT22;14887;51.252;7.470;2023-03-26T13:29:58;7.00;99.90
27439;DHT22;14887;51.252;7.470;2023-03-26T13:35:11;6.90;99.90
27439;DHT22;14887;51.252;7.470;2023-03-26T13:37:52;6.90;99.90
27439;DHT22;14887;51.252;7.470;2023-03-26T13:46:07;6.80;99.90
27439;DHT22;14887;51.252;7.470;2023-03-26T13:48:49;6.90;99.90
27439;DHT22;14887;51.252;7.470;2023-03-26T13:51:20;6.90;99.90
27439;DHT22;14887;51.252;7.470;2023-03-26T13:54:03;6.80;99.90
27439;DHT22;14887;51.252;7.470;2023-03-26T13:56:39;6.50;99.90
27439;DHT22;14887;51.252;7.470;2023-03-26T13:59:20;6.50;99.90
27439;DHT22;14887;51.252;7.470;2023-03-26T14:01:55;6.50;99.90
27439;DHT22;14887;51.252;7.470;2023-03-26T14:04:24;6.50;99.90
27439;DHT22;14887;51.252;7.470;2023-03-26T14:07:11;6.40;99.90
27439;DHT22;14887;51.252;7.470;2023-03-26T14:09:50;6.40;99.90
27439;DHT22;14887;51.252;7.470;2023-03-26T14:14:54;6.20;99.90
27439;DHT22;14887;51.252;7.470;2023-03-26T14:17:37;6.10;99.90
27439;DHT22;14887;51.252;7.470;2023-03-26T14:34:00;6.80;99.90
27439;DHT22;14887;51.252;7.470;2023-03-26T14:42:18;7.00;99.90
27439;DHT22;14887;51.252;7.470;2023-03-26T14:50:52;7.20;99.90
27439;DHT22;14887;51.252;7.470;2023-03-26T14:53:33;7.30;99.90
27439;DHT22;14887;51.252;7.470;2023-03-26T14:56:25;7.40;99.90
27439;DHT22;14887;51.252;7.470;2023-03-26T15:05:42;7.80;99.90
27439;DHT22;14887;51.252;7.470;2023-03-26T15:11:31;7.50;98.20
27439;DHT22;14887;51.252;7.470;2023-03-26T15:16:36;7.40;99.90
27439;DHT22;14887;51.252;7.470;2023-03-26T15:22:11;7.00;99.90
27439;DHT22;14887;51.252;7.470;2023-03-26T15:24:59;6.90;99.90
27439;DHT22;14887;51.252;7.470;2023-03-26T15:33:40;6.60;99.90
27439;DHT22;14887;51.252;7.470;2023-03-26T15:36:21;6.60;99.90
27439;DHT22;14887;51.252;7.470;2023-03-26T15:41:55;6.40;99.90
27439;DHT22;14887;51.252;7.470;2023-03-26T15:44:41;6.30;99.90
27439;DHT22;14887;51.252;7.470;2023-03-26T15:55:21;6.00;99.90
27439;DHT22;14887;51.252;7.470;2023-03-26T16:00:28;6.00;99.90
27439;DHT22;14887;51.252;7.470;2023-03-26T16:06:02;5.90;99.90
27439;DHT22;14887;51.252;7.470;2023-03-26T16:11:12;5.80;99.90
27439;DHT22;14887;51.252;7.470;2023-03-26T16:13:48;5.80;99.90
27439;DHT22;14887;51.252;7.470;2023-03-26T16:18:44;5.70;99.90
27439;DHT22;14887;51.252;7.470;2023-03-26T16:27:24;5.50;99.90
27439;DHT22;14887;51.252;7.470;2023-03-26T16:32:39;5.50;99.90
27439;DHT22;14887;51.252;7.470;2023-03-26T16:37:42;5.40;99.90
27439;DHT22;14887;51.252;7.470;2023-03-26T16:48:47;5.30;99.90
27439;DHT22;14887;51.252;7.470;2023-03-26T16:54:35;5.30;99.90
27439;DHT22;14887;51.252;7.470;2023-03-26T16:57:23;5.30;99.90
27439;DHT22;14887;51.252;7.470;2023-03-26T17:08:19;5.20;99.90
27439;DHT22;14887;51.252;7.470;2023-03-26T17:13:58;5.20;99.90
27439;DHT22;14887;51.252;7.470;2023-03-26T17:16:42;5.20;99.90
27439;DHT22;14887;51.252;7.470;2023-03-26T17:21:56;5.20;99.90
27439;DHT22;14887;51.252;7.470;2023-03-26T17:24:38;5.20;99.90
27439;DHT22;14887;51.252;7.470;2023-03-26T17:29:59;5.20;99.90
27439;DHT22;14887;51.252;7.470;2023-03-26T17:32:53;5.20;99.90
27439;DHT22;14887;51.252;7.470;2023-03-26T17:35:45;5.10;99.90
27439;DHT22;14887;51.252;7.470;2023-03-26T17:48:41;5.10;99.90
27439;DHT22;14887;51.252;7.470;2023-03-26T17:54:25;4.90;99.90
27439;DHT22;14887;51.252;7.470;2023-03-26T17:56:52;4.80;99.90
27439;DHT22;14887;51.252;7.470;2023-03-26T17:59:22;4.70;99.90
27439;DHT22;14887;51.252;7.470;2023-03-26T18:02:01;4.60;99.90
27439;DHT22;14887;51.252;7.470;2023-03-26T18:04:32;4.60;99.90
27439;DHT22;14887;51.252;7.470;2023-03-26T18:15:25;4.40;99.90
27439;DHT22;14887;51.252;7.470;2023-03-26T18:18:10;4.40;99.90
27439;DHT22;14887;51.252;7.470;2023-03-26T18:20:37;4.50;99.90
27439;DHT22;14887;51.252;7.470;2023-03-26T18:23:51;4.50;99.90
27439;DHT22;14887;51.252;7.470;2023-03-26T18:26:10;4.40;99.90
27439;DHT22;14887;51.252;7.470;2023-03-26T18:28:47;4.40;99.90
27439;DHT22;14887;51.252;7.470;2023-03-26T18:31:22;4.40;99.90
27439;DHT22;14887;51.252;7.470;2023-03-26T18:33:49;4.40;99.90
27439;DHT22;14887;51.252;7.470;2023-03-26T18:36:19;4.30;99.90
27439;DHT22;14887;51.252;7.470;2023-03-26T18:38:45;4.30;99.90
27439;DHT22;14887;51.252;7.470;2023-03-26T18:41:22;4.30;99.90
27439;DHT22;14887;51.252;7.470;2023-03-26T18:43:49;4.40;99.90
27439;DHT22;14887;51.252;7.470;2023-03-26T18:46:15;4.30;99.90
27439;DHT22;14887;51.252;7.470;2023-03-26T18:48:41;4.30;99.90
27439;DHT22;14887;51.252;7.470;2023-03-26T18:51:07;4.30;99.90
27439;DHT22;14887;51.252;7.470;2023-03-26T18:54:00;4.20;99.90
27439;DHT22;14887;51.252;7.470;2023-03-26T18:56:38;4.20;99.90
27439;DHT22;14887;51.252;7.470;2023-03-26T18:59:16;4.20;99.90
27439;DHT22;14887;51.252;7.470;2023-03-26T19:01:44;4.20;99.90
27439;DHT22;14887;51.252;7.470;2023-03-26T19:04:11;4.20;99.90
27439;DHT22;14887;51.252;7.470;2023-03-26T19:06:39;4.20;99.90
27439;DHT22;14887;51.252;7.470;2023-03-26T19:09:08;4.10;99.90
27439;DHT22;14887;51.252;7.470;2023-03-26T19:11:37;4.10;99.90
27439;DHT22;14887;51.252;7.470;2023-03-26T19:14:14;4.00;99.90
27439;DHT22;14887;51.252;7.470;2023-03-26T19:16:40;4.00;99.90
27439;DHT22;14887;51.252;7.470;2023-03-26T19:19:15;4.00;99.90
27439;DHT22;14887;51.252;7.470;2023-03-26T19:21:43;3.90;99.90
27439;DHT22;14887;51.252;7.470;2023-03-26T19:24:09;3.80;99.90
27439;DHT22;14887;51.252;7.470;2023-03-26T19:26:36;3.80;99.90
27439;DHT22;14887;51.252;7.470;2023-03-26T19:29:02;3.80;99.90
27439;DHT22;14887;51.252;7.470;2023-03-26T19:31:33;3.80;99.90
27439;DHT22;14887;51.252;7.470;2023-03-26T19:37:15;3.90;99.90
27439;DHT22;14887;51.252;7.470;2023-03-26T19:39:45;3.80;99.90
27439;DHT22;14887;51.252;7.470;2023-03-26T19:42:14;3.80;99.90
27439;DHT22;14887;51.252;7.470;2023-03-26T19:44:42;3.80;99.90
27439;DHT22;14887;51.252;7.470;2023-03-26T19:47:38;3.80;99.90
27439;DHT22;14887;51.252;7.470;2023-03-26T19:50:28;3.80;99.90
27439;DHT22;14887;51.252;7.470;2023-03-26T19:55:36;3.70;99.90
27439;DHT22;14887;51.252;7.470;2023-03-26T19:58:02;3.70;99.90
27439;DHT22;14887;51.252;7.470;2023-03-26T20:00:28;3.60;99.90
27439;DHT22;14887;51.252;7.470;2023-03-26T20:02:54;3.60;99.90
27439;DHT22;14887;51.252;7.470;2023-03-26T20:05:30;3.60;99.90
27439;DHT22;14887;51.252;7.470;2023-03-26T20:07:58;3.50;99.90
27439;DHT22;14887;51.252;7.470;2023-03-26T20:10:25;3.50;99.90
27439;DHT22;14887;51.252;7.470;2023-03-26T20:12:51;3.50;99.90
27439;DHT22;14887;51.252;7.470;2023-03-26T20:15:25;3.40;99.90
27439;DHT22;14887;51.252;7.470;2023-03-26T20:17:53;3.50;99.90
27439;DHT22;14887;51.252;7.470;2023-03-26T20:20:22;3.50;99.90
27439;DHT22;14887;51.252;7.470;2023-03-26T20:22:52;3.40;99.90
27439;DHT22;14887;51.252;7.470;2023-03-26T20:25:22;3.40;99.90
27439;DHT22;14887;51.252;7.470;2023-03-26T20:27:48;3.50;99.90
27439;DHT22;14887;51.252;7.470;2023-03-26T20:30:17;3.40;99.90
27439;DHT22;14887;51.252;7.470;2023-03-26T20:32:43;3.40;99.90
27439;DHT22;14887;51.252;7.470;2023-03-26T20:35:23;3.40;99.90
27439;DHT22;14887;51.252;7.470;2023-03-26T20:37:50;3.30;99.90
27439;DHT22;14887;51.252;7.470;2023-03-26T20:40:16;3.30;99.90
27439;DHT22;14887;51.252;7.470;2023-03-26T20:42:43;3.40;99.90
27439;DHT22;14887;51.252;7.470;2023-03-26T20:45:21;3.30;99.90
27439;DHT22;14887;51.252;7.470;2023-03-26T20:47:48;3.40;99.90
27439;DHT22;14887;51.252;7.470;2023-03-26T20:50:16;3.40;99.90
27439;DHT22;14887;51.252;7.470;2023-03-26T20:52:42;3.30;99.90
27439;DHT22;14887;51.252;7.470;2023-03-26T20:55:16;3.30;99.90
27439;DHT22;14887;51.252;7.470;2023-03-26T20:57:42;3.30;99.90
27439;DHT22;14887;51.252;7.470;2023-03-26T21:00:12;3.20;72.70
27439;DHT22;14887;51.252;7.470;2023-03-26T21:02:47;3.00;35.10
27439;DHT22;14887;51.252;7.470;2023-03-26T21:05:16;3.00;31.30
27439;DHT22;14887;51.252;7.470;2023-03-26T21:07:49;3.00;51.80
27439;DHT22;14887;51.252;7.470;2023-03-26T21:10:17;3.00;20.30
27439;DHT22;14887;51.252;7.470;2023-03-26T21:12:58;2.90;26.10
27439;DHT22;14887;51.252;7.470;2023-03-26T21:15:26;2.90;34.70
27439;DHT22;14887;51.252;7.470;2023-03-26T21:17:52;2.80;29.10
27439;DHT22;14887;51.252;7.470;2023-03-26T21:20:20;2.80;38.90
27439;DHT22;14887;51.252;7.470;2023-03-26T21:25:52;2.70;45.30
27439;DHT22;14887;51.252;7.470;2023-03-26T21:28:34;2.80;51.00
27439;DHT22;14887;51.252;7.470;2023-03-26T21:31:04;2.80;58.40
27439;DHT22;14887;51.252;7.470;2023-03-26T21:33:29;2.80;57.60
27439;DHT22;14887;51.252;7.470;2023-03-26T21:35:57;2.80;42.10
27439;DHT22;14887;51.252;7.470;2023-03-26T21:38:23;2.60;31.40